Time;durP1;ratioP1;P1;durP2;ratioP2;P2;SDS_P1;SDS_P2;PMS_P1;PMS_P2;Temp;Humidity;BMP_temperature;BMP_pressure;BME280_temperature;BME280_humidity;BME280_pressure;Samples;Min_cycle;Max_cycle;Signal;HPM_P1;HPM_P2
2022/01/08 00:00:37;;;;;;;9.03;6.63;;;5.30;99.90;;;;;;5038604;28;20272;-79
2022/01/08 00:03:04;;;;;;;11.30;6.97;;;5.30;99.90;;;;;;5059664;28;20297;-78
2022/01/08 00:05:31;;;;;;;10.77;6.37;;;5.20;99.90;;;;;;5042466;28;20221;-79
2022/01/08 00:07:58;;;;;;;11.07;6.87;;;5.20;99.90;;;;;;5058054;28;20209;-79
2022/01/08 00:10:24;;;;;;;9.97;7.20;;;5.30;99.90;;;;;;5049495;28;20219;-79
2022/01/08 00:12:53;;;;;;;9.93;7.03;;;5.30;99.90;;;;;;5034347;28;20306;-79
2022/01/08 00:15:22;;;;;;;7.63;6.03;;;5.30;99.90;;;;;;5039637;28;20278;-79
2022/01/08 00:17:48;;;;;;;9.83;6.30;;;5.30;99.90;;;;;;5047490;28;20216;-79
2022/01/08 00:20:15;;;;;;;10.77;6.50;;;5.30;99.90;;;;;;5064455;28;20225;-79
2022/01/08 00:22:42;;;;;;;10.97;6.70;;;5.30;99.90;;;;;;5058760;28;20223;-81
2022/01/08 00:25:11;;;;;;;9.17;6.10;;;5.40;99.90;;;;;;5066530;28;20215;-79
2022/01/08 00:27:37;;;;;;;10.40;6.27;;;5.30;99.90;;;;;;5043415;28;20231;-79
2022/01/08 00:30:05;;;;;;;12.00;5.93;;;5.30;99.90;;;;;;5044702;28;20221;-80
2022/01/08 00:32:35;;;;;;;9.07;5.97;;;5.30;99.90;;;;;;5047093;28;20757;-79
2022/01/08 00:35:01;;;;;;;9.60;5.57;;;5.30;99.90;;;;;;5068214;28;20216;-80
2022/01/08 00:37:28;;;;;;;12.27;6.17;;;5.30;99.90;;;;;;5047121;28;20249;-80
2022/01/08 00:39:55;;;;;;;11.23;6.37;;;5.30;99.90;;;;;;5048291;28;20214;-80
2022/01/08 00:42:22;;;;;;;11.87;6.80;;;5.30;99.90;;;;;;5040882;28;20306;-80
2022/01/08 00:44:48;;;;;;;11.47;7.00;;;5.30;99.90;;;;;;5037610;28;20225;-80
2022/01/08 00:47:15;;;;;;;9.53;6.97;;;5.30;99.90;;;;;;5044791;28;20226;-79
2022/01/08 00:49:43;;;;;;;10.00;7.13;;;5.30;99.90;;;;;;5043133;28;20233;-79
2022/01/08 00:52:10;;;;;;;8.83;6.77;;;5.30;99.90;;;;;;5042549;28;20304;-80
2022/01/08 00:54:38;;;;;;;11.47;7.20;;;5.30;99.90;;;;;;5044777;28;20233;-80
2022/01/08 00:57:05;;;;;;;12.20;7.67;;;5.30;99.90;;;;;;5041397;28;20313;-79
2022/01/08 00:59:32;;;;;;;10.63;6.83;;;5.30;99.90;;;;;;5073354;28;20218;-79
2022/01/08 01:01:59;;;;;;;9.97;7.30;;;5.30;99.90;;;;;;5064955;28;20262;-79
2022/01/08 01:04:26;;;;;;;12.07;7.60;;;5.30;99.90;;;;;;5044559;28;20231;-79
2022/01/08 01:06:54;;;;;;;10.80;7.90;;;5.30;99.90;;;;;;5068394;28;20230;-80
2022/01/08 01:09:21;;;;;;;12.17;7.60;;;5.30;99.90;;;;;;5042541;28;20232;-80
2022/01/08 01:11:47;;;;;;;10.73;7.97;;;5.30;99.90;;;;;;5043248;28;20222;-79
2022/01/08 01:14:14;;;;;;;10.57;8.10;;;5.30;99.90;;;;;;5043255;28;20610;-80
2022/01/08 01:16:41;;;;;;;12.40;7.43;;;5.30;99.90;;;;;;5041541;28;20236;-80
2022/01/08 01:19:08;;;;;;;11.60;7.80;;;5.30;99.90;;;;;;5045102;28;20226;-80
2022/01/08 01:21:35;;;;;;;11.40;8.63;;;5.40;99.90;;;;;;5035074;28;20225;-80
2022/01/08 01:24:10;;;;;;;12.70;8.13;;;5.40;99.90;;;;;;5041630;28;20748;-80
2022/01/08 01:26:48;;;;;;;11.97;8.73;;;5.40;99.90;;;;;;5055338;28;20225;-81
2022/01/08 01:29:34;;;;;;;11.57;9.20;;;5.40;99.90;;;;;;5063710;28;20618;-80
2022/01/08 01:43:22;;;;;;;13.47;9.37;;;5.40;99.90;;;;;;5037298;28;20237;-78
2022/01/08 01:48:33;;;;;;;12.27;9.57;;;5.40;99.90;;;;;;5040707;28;20236;-79
2022/01/08 01:50:59;;;;;;;13.40;9.93;;;5.40;99.90;;;;;;5050014;28;20226;-79
2022/01/08 01:53:26;;;;;;;13.97;10.43;;;5.40;99.90;;;;;;5035059;28;20223;-79
2022/01/08 01:55:54;;;;;;;14.43;10.77;;;5.40;99.90;;;;;;5044130;28;20630;-79
2022/01/08 01:58:21;;;;;;;15.77;10.33;;;5.40;99.90;;;;;;5044860;28;20228;-79
2022/01/08 02:00:50;;;;;;;15.20;10.63;;;5.40;99.90;;;;;;5062006;28;20241;-79
2022/01/08 02:03:17;;;;;;;14.17;10.33;;;5.40;99.90;;;;;;5037351;28;20218;-78
2022/01/08 02:05:45;;;;;;;15.10;10.67;;;5.40;99.90;;;;;;5061777;28;20222;-78
2022/01/08 02:08:13;;;;;;;15.30;10.53;;;5.50;99.90;;;;;;5057018;28;20642;-81
2022/01/08 02:10:40;;;;;;;13.70;9.77;;;5.50;99.90;;;;;;5058366;28;20357;-80
2022/01/08 02:13:08;;;;;;;13.03;10.40;;;5.40;99.90;;;;;;5054203;28;20814;-80
2022/01/08 02:15:36;;;;;;;15.80;9.97;;;5.50;99.90;;;;;;5047263;28;20911;-78
2022/01/08 02:18:03;;;;;;;13.00;9.43;;;5.50;99.90;;;;;;5069520;28;20205;-79
2022/01/08 02:20:31;;;;;;;15.47;10.73;;;5.40;99.90;;;;;;5070040;28;20214;-79
2022/01/08 02:22:57;;;;;;;14.53;10.43;;;5.50;99.90;;;;;;5070474;28;20203;-79
2022/01/08 02:25:24;;;;;;;13.67;10.83;;;5.50;99.90;;;;;;5044034;28;20574;-78
2022/01/08 02:27:50;;;;;;;14.57;11.03;;;5.50;99.90;;;;;;5074076;28;20401;-79
2022/01/08 02:30:18;;;;;;;14.70;10.47;;;5.50;99.90;;;;;;5037208;28;20637;-79
2022/01/08 02:32:46;;;;;;;13.47;10.83;;;5.50;99.90;;;;;;5066007;28;20219;-79
2022/01/08 02:35:13;;;;;;;13.67;11.07;;;5.50;99.90;;;;;;5056915;28;20226;-79
2022/01/08 02:37:41;;;;;;;15.27;10.87;;;5.50;99.90;;;;;;5064114;28;20231;-79
2022/01/08 02:40:09;;;;;;;13.00;10.37;;;5.50;99.90;;;;;;5063995;28;20298;-79
2022/01/08 02:42:39;;;;;;;12.57;10.83;;;5.50;99.90;;;;;;5065382;28;20288;-79
2022/01/08 02:45:08;;;;;;;15.97;10.60;;;5.50;99.90;;;;;;5067181;28;20755;-78
2022/01/08 02:47:34;;;;;;;13.43;10.63;;;5.50;99.90;;;;;;5077605;28;20226;-79
2022/01/08 02:50:01;;;;;;;13.80;9.93;;;5.50;99.90;;;;;;5077513;28;20222;-78
2022/01/08 02:52:28;;;;;;;15.07;9.70;;;5.50;99.90;;;;;;5056141;28;20315;-79
2022/01/08 02:54:56;;;;;;;13.43;9.67;;;5.50;99.90;;;;;;5067693;28;20212;-79
2022/01/08 02:57:23;;;;;;;12.40;9.30;;;5.50;99.90;;;;;;5062499;28;20265;-78
2022/01/08 02:59:50;;;;;;;11.80;9.33;;;5.50;99.90;;;;;;5047067;28;20241;-78
2022/01/08 03:02:17;;;;;;;10.97;9.13;;;5.50;99.90;;;;;;5070489;28;20321;-78
2022/01/08 03:04:45;;;;;;;12.70;9.63;;;5.50;99.90;;;;;;5046313;28;20592;-78
2022/01/08 03:07:11;;;;;;;12.47;9.00;;;5.50;99.90;;;;;;5049529;28;20224;-78
2022/01/08 03:09:41;;;;;;;14.23;8.63;;;5.40;99.90;;;;;;5041617;28;20226;-78
2022/01/08 03:12:10;;;;;;;13.17;9.27;;;5.40;99.90;;;;;;5040437;28;20888;-78
2022/01/08 03:14:37;;;;;;;11.87;8.47;;;5.40;99.90;;;;;;5068114;28;20300;-78
2022/01/08 03:17:04;;;;;;;10.83;8.27;;;5.40;99.90;;;;;;5065681;28;20717;-79
2022/01/08 03:19:31;;;;;;;10.50;8.00;;;5.40;99.90;;;;;;5063886;28;20342;-79
2022/01/08 03:22:02;;;;;;;9.60;7.57;;;5.40;99.90;;;;;;5064815;28;20210;-79
2022/01/08 03:24:29;;;;;;;11.03;8.07;;;5.40;99.90;;;;;;5073889;28;20224;-79
2022/01/08 03:26:57;;;;;;;11.73;8.60;;;5.40;99.90;;;;;;5050758;28;20246;-79
2022/01/08 03:29:26;;;;;;;11.97;8.80;;;5.40;99.90;;;;;;5049135;28;20223;-79
2022/01/08 03:31:52;;;;;;;12.57;8.80;;;5.40;99.90;;;;;;5066803;28;20230;-78
2022/01/08 03:34:19;;;;;;;11.73;9.07;;;5.40;99.90;;;;;;5043574;28;20219;-79
2022/01/08 03:36:46;;;;;;;13.00;8.97;;;5.40;99.90;;;;;;5066635;28;20308;-79
2022/01/08 03:39:13;;;;;;;11.93;9.43;;;5.40;99.90;;;;;;5070817;28;20214;-79
2022/01/08 03:41:39;;;;;;;12.93;9.20;;;5.40;99.90;;;;;;5048844;28;20692;-78
2022/01/08 03:44:06;;;;;;;11.60;9.47;;;5.40;99.90;;;;;;5066820;28;20227;-79
2022/01/08 03:46:36;;;;;;;11.17;9.13;;;5.40;99.90;;;;;;5069934;28;20320;-79
2022/01/08 03:49:23;;;;;;;14.67;10.23;;;5.40;99.90;;;;;;5068154;28;20225;-79
2022/01/08 03:51:50;;;;;;;12.77;9.33;;;5.40;99.90;;;;;;5065754;28;20215;-79
2022/01/08 03:54:17;;;;;;;14.33;9.93;;;5.50;99.90;;;;;;5032585;28;20222;-78
2022/01/08 03:56:44;;;;;;;13.97;10.37;;;5.50;99.90;;;;;;5068917;28;20230;-79
2022/01/08 03:59:11;;;;;;;17.10;11.03;;;5.50;99.90;;;;;;5058239;28;20216;-79
2022/01/08 04:01:39;;;;;;;15.00;11.20;;;5.50;99.90;;;;;;5053349;28;20233;-79
2022/01/08 04:04:06;;;;;;;13.87;11.23;;;5.50;99.90;;;;;;5053417;28;20328;-79
2022/01/08 04:06:33;;;;;;;13.63;11.33;;;5.50;99.90;;;;;;5076998;28;20229;-80
2022/01/08 04:08:59;;;;;;;17.20;11.73;;;5.50;99.90;;;;;;5043459;28;20315;-80
2022/01/08 04:11:27;;;;;;;16.30;11.47;;;5.60;99.90;;;;;;5066905;28;20650;-78
2022/01/08 04:13:55;;;;;;;14.17;11.60;;;5.60;99.90;;;;;;5067483;28;20233;-78
2022/01/08 04:16:27;;;;;;;15.97;10.90;;;5.60;99.90;;;;;;5053242;28;20267;-78
2022/01/08 04:18:55;;;;;;;13.30;11.13;;;5.60;99.90;;;;;;5070572;28;20289;-78
2022/01/08 04:24:16;;;;;;;16.17;10.43;;;5.50;99.90;;;;;;5032232;28;20691;-78
2022/01/08 04:26:43;;;;;;;14.87;10.93;;;5.50;99.90;;;;;;5058574;28;20226;-78
2022/01/08 04:29:10;;;;;;;15.27;11.57;;;5.50;99.90;;;;;;5045836;28;20224;-77
2022/01/08 04:31:37;;;;;;;16.07;11.53;;;5.50;99.90;;;;;;5061205;28;20311;-78
2022/01/08 04:34:05;;;;;;;15.43;11.53;;;5.50;99.90;;;;;;5037025;28;20210;-79
2022/01/08 04:36:32;;;;;;;16.27;11.80;;;5.50;99.90;;;;;;5053986;28;20245;-78
2022/01/08 04:38:59;;;;;;;17.93;12.20;;;5.50;99.90;;;;;;5053176;28;20711;-81
2022/01/08 04:41:25;;;;;;;18.53;12.40;;;5.50;99.90;;;;;;5066720;28;20214;-78
2022/01/08 04:43:52;;;;;;;19.73;12.63;;;5.50;99.90;;;;;;5052710;28;20605;-78
2022/01/08 04:46:19;;;;;;;18.77;11.80;;;5.50;99.90;;;;;;5074950;28;20200;-78
2022/01/08 04:48:45;;;;;;;16.83;12.83;;;5.50;99.90;;;;;;5064497;28;20235;-78
2022/01/08 04:51:13;;;;;;;21.37;13.03;;;5.50;99.90;;;;;;5060384;28;20701;-78
2022/01/08 04:53:40;;;;;;;18.83;13.23;;;5.50;99.90;;;;;;5059680;28;20222;-77
2022/01/08 04:56:07;;;;;;;19.80;12.80;;;5.50;99.90;;;;;;5063055;28;20227;-78
2022/01/08 04:58:34;;;;;;;18.70;12.37;;;5.50;99.90;;;;;;5062744;28;20709;-79
2022/01/08 05:01:00;;;;;;;17.73;12.40;;;5.50;99.90;;;;;;5066172;28;20232;-78
2022/01/08 05:03:27;;;;;;;18.60;11.90;;;5.50;99.90;;;;;;5063130;28;20247;-77
2022/01/08 05:05:54;;;;;;;17.70;12.23;;;5.50;99.90;;;;;;5070544;28;20704;-78
2022/01/08 05:08:22;;;;;;;16.77;11.07;;;5.50;99.90;;;;;;5075766;28;20218;-78
2022/01/08 05:10:48;;;;;;;18.57;11.57;;;5.50;99.90;;;;;;5049207;28;20219;-78
2022/01/08 05:13:15;;;;;;;15.43;10.80;;;5.50;99.90;;;;;;5069056;28;20235;-78
2022/01/08 05:15:42;;;;;;;18.00;11.40;;;5.50;99.90;;;;;;5066092;28;20218;-78
2022/01/08 05:18:10;;;;;;;19.40;11.70;;;5.60;99.90;;;;;;5069404;28;20287;-78
2022/01/08 05:20:39;;;;;;;17.97;10.97;;;5.50;99.90;;;;;;5060536;28;20219;-77
2022/01/08 05:23:06;;;;;;;17.23;10.90;;;5.50;99.90;;;;;;5049349;28;20690;-78
2022/01/08 05:25:34;;;;;;;16.47;11.77;;;5.50;99.90;;;;;;5060295;28;20958;-78
2022/01/08 05:28:02;;;;;;;17.17;11.07;;;5.60;99.90;;;;;;5068582;28;20602;-82
2022/01/08 05:30:29;;;;;;;13.97;10.03;;;5.50;99.90;;;;;;5047141;28;20234;-79
2022/01/08 05:32:56;;;;;;;17.50;11.93;;;5.50;99.90;;;;;;5047087;28;20219;-79
2022/01/08 05:35:25;;;;;;;20.53;10.97;;;5.60;99.90;;;;;;5041521;28;21082;-79
2022/01/08 05:37:52;;;;;;;15.43;10.73;;;5.50;99.90;;;;;;5067619;28;20229;-79
2022/01/08 05:40:19;;;;;;;17.70;10.47;;;5.50;99.90;;;;;;5066433;28;20215;-79
2022/01/08 05:42:47;;;;;;;18.30;11.00;;;5.50;99.90;;;;;;5052635;28;20227;-79
2022/01/08 05:45:14;;;;;;;15.50;11.07;;;5.60;99.90;;;;;;5063838;28;20270;-79
2022/01/08 05:47:41;;;;;;;17.33;11.17;;;5.50;99.90;;;;;;5048574;28;20242;-80
2022/01/08 05:50:10;;;;;;;15.77;10.03;;;5.60;99.90;;;;;;5054211;28;20214;-79
2022/01/08 05:52:37;;;;;;;14.00;9.70;;;5.60;99.90;;;;;;5077746;28;20222;-79
2022/01/08 05:55:04;;;;;;;15.40;10.10;;;5.60;99.90;;;;;;5044339;28;20229;-80
2022/01/08 05:57:31;;;;;;;18.70;10.80;;;5.60;99.90;;;;;;5056175;28;20227;-80
2022/01/08 06:00:01;;;;;;;14.40;10.37;;;5.60;99.90;;;;;;5057024;28;20728;-80
2022/01/08 06:02:35;;;;;;;16.07;10.23;;;5.60;99.90;;;;;;5064837;28;20224;-80
2022/01/08 06:05:01;;;;;;;17.73;11.37;;;5.60;99.90;;;;;;5056295;28;20233;-80
2022/01/08 06:07:28;;;;;;;16.27;10.47;;;5.60;99.90;;;;;;5052626;28;20226;-80
2022/01/08 06:09:55;;;;;;;14.90;10.43;;;5.60;99.90;;;;;;5047405;28;20237;-79
2022/01/08 06:12:21;;;;;;;17.77;11.27;;;5.60;99.90;;;;;;5069348;28;20551;-79
2022/01/08 06:14:48;;;;;;;17.77;11.00;;;5.60;99.90;;;;;;5066196;28;20230;-79
2022/01/08 06:17:16;;;;;;;17.63;11.87;;;5.60;99.90;;;;;;5050310;28;20212;-79
2022/01/08 06:19:43;;;;;;;19.07;12.57;;;5.60;99.90;;;;;;5046747;28;20235;-79
2022/01/08 06:22:09;;;;;;;20.33;13.50;;;5.60;99.90;;;;;;5061620;28;20218;-82
2022/01/08 06:24:36;;;;;;;20.80;14.17;;;5.60;99.90;;;;;;5061877;28;20658;-79
2022/01/08 06:27:03;;;;;;;20.90;13.20;;;5.60;99.90;;;;;;5072110;28;20218;-79
2022/01/08 06:29:30;;;;;;;19.90;13.60;;;5.60;99.90;;;;;;5046517;28;20227;-78
2022/01/08 06:31:56;;;;;;;24.43;14.63;;;5.60;99.90;;;;;;5068833;28;20226;-80
2022/01/08 06:34:25;;;;;;;22.07;14.50;;;5.60;99.90;;;;;;5047790;28;20215;-80
2022/01/08 06:36:51;;;;;;;24.63;14.60;;;5.60;99.90;;;;;;5052377;28;20235;-80
2022/01/08 06:39:18;;;;;;;24.10;14.10;;;5.70;99.90;;;;;;5041307;28;20211;-80
2022/01/08 06:41:45;;;;;;;22.87;14.53;;;5.60;99.90;;;;;;5049686;28;20297;-79
2022/01/08 06:44:12;;;;;;;23.37;14.43;;;5.70;99.90;;;;;;5065557;28;20219;-80
2022/01/08 06:46:40;;;;;;;24.47;14.30;;;5.70;99.90;;;;;;5056545;28;20317;-82
2022/01/08 06:49:07;;;;;;;24.70;14.97;;;5.70;99.90;;;;;;5043593;28;20284;-79
2022/01/08 06:51:35;;;;;;;24.47;14.60;;;5.70;99.90;;;;;;5039246;28;20758;-80
2022/01/08 06:54:02;;;;;;;26.53;15.30;;;5.70;99.90;;;;;;5040598;28;20750;-79
2022/01/08 06:56:29;;;;;;;20.90;14.67;;;5.70;99.90;;;;;;5044929;28;20233;-79
2022/01/08 06:58:55;;;;;;;26.67;15.77;;;5.70;99.90;;;;;;5039461;28;20223;-79
2022/01/08 07:01:22;;;;;;;21.57;15.20;;;5.70;99.90;;;;;;5039280;28;20223;-79
2022/01/08 07:03:49;;;;;;;24.47;15.87;;;5.70;99.90;;;;;;5037627;28;20218;-79
2022/01/08 07:06:15;;;;;;;23.37;15.30;;;5.70;99.90;;;;;;5055613;28;20888;-80
2022/01/08 07:08:43;;;;;;;22.93;15.63;;;5.70;99.90;;;;;;5039646;28;20731;-80
2022/01/08 07:11:11;;;;;;;23.70;15.27;;;5.70;99.90;;;;;;5037313;28;20218;-79
2022/01/08 07:13:37;;;;;;;20.00;14.40;;;5.70;99.90;;;;;;5058362;28;20230;-79
2022/01/08 07:16:05;;;;;;;21.47;14.27;;;5.70;99.90;;;;;;5065788;28;20214;-79
2022/01/08 07:18:32;;;;;;;24.27;14.50;;;5.70;99.90;;;;;;5063214;28;20238;-80
2022/01/08 07:20:58;;;;;;;22.87;15.23;;;5.70;99.90;;;;;;5049542;28;21068;-79
2022/01/08 07:23:25;;;;;;;23.87;15.70;;;5.70;99.90;;;;;;5064908;28;20300;-79
2022/01/08 07:25:53;;;;;;;22.20;14.03;;;5.70;99.90;;;;;;5062801;28;20226;-79
2022/01/08 07:28:20;;;;;;;23.10;14.97;;;5.70;99.90;;;;;;5065273;28;20209;-79
2022/01/08 07:30:47;;;;;;;21.00;13.83;;;5.70;99.90;;;;;;5062582;28;20232;-80
2022/01/08 07:33:13;;;;;;;23.17;14.73;;;5.70;99.90;;;;;;5059364;28;20311;-80
2022/01/08 07:35:40;;;;;;;23.47;15.37;;;5.70;99.90;;;;;;5046360;28;20220;-79
2022/01/08 07:38:07;;;;;;;25.03;16.07;;;5.70;99.90;;;;;;5057468;28;20235;-79
2022/01/08 07:40:33;;;;;;;24.10;15.20;;;5.80;99.90;;;;;;5067654;28;20776;-79
2022/01/08 07:43:01;;;;;;;21.97;15.00;;;5.70;99.90;;;;;;5033459;28;20228;-79
2022/01/08 07:45:28;;;;;;;21.53;14.30;;;5.80;99.90;;;;;;5070537;28;20245;-79
2022/01/08 07:47:55;;;;;;;24.10;14.93;;;5.80;99.90;;;;;;5067953;28;20217;-78
2022/01/08 07:50:22;;;;;;;24.07;15.10;;;5.80;99.90;;;;;;5047791;28;20224;-79
2022/01/08 07:52:49;;;;;;;23.30;15.53;;;5.80;99.90;;;;;;5050749;28;20219;-80
2022/01/08 07:55:16;;;;;;;21.53;15.13;;;5.80;99.90;;;;;;5063236;28;20230;-79
2022/01/08 07:57:43;;;;;;;23.90;15.60;;;5.80;99.90;;;;;;5045946;28;20630;-79
2022/01/08 08:00:12;;;;;;;25.73;15.67;;;5.80;99.90;;;;;;5054470;28;20301;-80
2022/01/08 08:02:39;;;;;;;22.40;15.67;;;5.80;99.90;;;;;;5062293;28;20232;-80
2022/01/08 08:05:06;;;;;;;25.33;15.70;;;5.80;99.90;;;;;;5063511;28;20729;-79
2022/01/08 08:07:37;;;;;;;27.70;15.53;;;5.90;99.90;;;;;;5043626;28;20230;-79
2022/01/08 08:10:06;;;;;;;25.43;15.17;;;5.90;99.90;;;;;;5060403;28;20289;-79
2022/01/08 08:12:32;;;;;;;25.97;16.87;;;5.90;99.90;;;;;;5040845;28;20235;-78
2022/01/08 08:14:59;;;;;;;31.13;16.97;;;5.90;99.90;;;;;;5049191;28;20222;-79
2022/01/08 08:17:27;;;;;;;23.70;15.90;;;5.90;99.90;;;;;;5042791;28;20223;-79
2022/01/08 08:19:54;;;;;;;24.97;16.00;;;5.90;99.90;;;;;;5045253;28;20218;-79
2022/01/08 08:22:21;;;;;;;26.07;15.93;;;5.90;99.90;;;;;;5037468;28;20732;-80
2022/01/08 08:24:47;;;;;;;25.63;17.07;;;5.90;99.90;;;;;;5043158;28;20241;-78
2022/01/08 08:27:14;;;;;;;26.90;16.73;;;5.90;99.90;;;;;;5042914;28;20228;-79
2022/01/08 08:29:41;;;;;;;30.43;16.43;;;5.90;99.90;;;;;;5053487;28;20243;-80
2022/01/08 08:32:08;;;;;;;25.57;15.93;;;5.90;99.90;;;;;;5055050;28;20246;-81
2022/01/08 08:34:37;;;;;;;31.03;17.40;;;6.00;99.90;;;;;;5060464;28;20215;-80
2022/01/08 08:37:04;;;;;;;30.03;17.00;;;6.00;99.90;;;;;;5040312;28;20226;-82
2022/01/08 08:39:31;;;;;;;30.60;16.17;;;6.00;99.90;;;;;;5034471;28;20233;-80
2022/01/08 08:41:57;;;;;;;28.00;15.00;;;6.00;99.90;;;;;;5049833;28;21505;-81
2022/01/08 08:44:24;;;;;;;24.37;14.80;;;5.90;99.90;;;;;;5056446;28;20228;-79
2022/01/08 08:46:51;;;;;;;22.60;15.30;;;6.10;99.90;;;;;;5061072;28;20216;-81
2022/01/08 08:49:18;;;;;;;23.30;14.70;;;6.00;99.90;;;;;;5053376;28;20707;-80
2022/01/08 08:51:45;;;;;;;26.63;15.93;;;6.00;99.90;;;;;;5061235;28;20686;-78
2022/01/08 08:54:12;;;;;;;27.13;15.67;;;6.00;99.90;;;;;;5051164;28;20249;-79
2022/01/08 08:56:39;;;;;;;26.03;15.07;;;6.00;99.90;;;;;;5046034;28;20239;-79
2022/01/08 08:59:06;;;;;;;25.47;15.67;;;6.00;99.90;;;;;;5057958;28;20222;-79
2022/01/08 09:01:33;;;;;;;23.03;15.23;;;6.00;99.90;;;;;;5037787;28;20228;-79
2022/01/08 09:03:59;;;;;;;25.10;13.80;;;6.00;99.90;;;;;;5053184;28;20225;-79
2022/01/08 09:06:26;;;;;;;24.20;14.93;;;6.10;99.90;;;;;;5038324;28;20597;-79
2022/01/08 09:08:55;;;;;;;21.13;14.33;;;6.10;99.90;;;;;;5062283;28;20237;-79
2022/01/08 09:11:21;;;;;;;23.67;14.33;;;6.10;99.90;;;;;;5045273;28;20226;-79
2022/01/08 09:13:48;;;;;;;27.40;14.67;;;6.10;99.90;;;;;;5045980;28;20230;-79
2022/01/08 09:16:15;;;;;;;22.80;14.60;;;6.10;99.90;;;;;;5066329;28;20299;-79
2022/01/08 09:18:42;;;;;;;24.07;14.83;;;6.10;99.90;;;;;;5081378;28;20253;-79
2022/01/08 09:21:09;;;;;;;24.43;15.20;;;6.20;99.90;;;;;;5074199;28;20207;-79
2022/01/08 09:23:37;;;;;;;25.57;14.43;;;6.20;99.90;;;;;;5045627;28;20233;-79
2022/01/08 09:26:06;;;;;;;19.80;13.90;;;6.20;99.90;;;;;;5041193;28;20233;-79
2022/01/08 09:28:32;;;;;;;21.37;14.03;;;6.20;99.90;;;;;;5070991;28;20223;-79
2022/01/08 09:31:01;;;;;;;23.83;14.00;;;6.20;99.90;;;;;;5072290;28;20226;-79
2022/01/08 09:33:28;;;;;;;22.10;13.83;;;6.30;99.90;;;;;;5060465;28;20218;-79
2022/01/08 09:35:55;;;;;;;23.53;13.77;;;6.30;99.90;;;;;;5082123;28;20683;-79
2022/01/08 09:38:22;;;;;;;22.67;13.53;;;6.30;99.90;;;;;;5046473;28;20224;-79
2022/01/08 09:40:49;;;;;;;23.13;12.57;;;6.30;99.90;;;;;;5080636;28;20212;-79
2022/01/08 09:43:18;;;;;;;20.97;12.77;;;6.40;99.90;;;;;;5077876;28;20225;-82
2022/01/08 09:45:46;;;;;;;27.30;14.33;;;6.40;99.90;;;;;;5049312;28;20406;-79
2022/01/08 09:48:13;;;;;;;21.60;13.83;;;6.40;99.90;;;;;;5076120;28;20219;-82
2022/01/08 09:50:41;;;;;;;21.00;12.70;;;6.50;99.90;;;;;;5068601;28;20225;-79
2022/01/08 09:53:08;;;;;;;20.63;13.30;;;6.50;99.90;;;;;;5058741;28;20225;-79
2022/01/08 09:55:34;;;;;;;23.10;13.03;;;6.50;99.90;;;;;;5046805;28;20237;-79
2022/01/08 09:58:01;;;;;;;18.47;12.60;;;6.60;99.90;;;;;;5062521;28;20535;-79
2022/01/08 10:00:32;;;;;;;21.67;12.33;;;6.60;99.90;;;;;;5080404;28;20210;-79
2022/01/08 10:03:14;;;;;;;17.80;12.10;;;6.60;99.90;;;;;;5071946;28;20661;-79
2022/01/08 10:05:44;;;;;;;21.67;12.37;;;6.60;99.90;;;;;;5058686;28;20218;-79
2022/01/08 10:08:13;;;;;;;19.20;11.80;;;6.70;99.90;;;;;;5076719;28;20758;-79
2022/01/08 10:10:40;;;;;;;18.33;12.60;;;6.80;99.90;;;;;;5046118;28;20250;-78
2022/01/08 10:13:07;;;;;;;18.00;11.60;;;6.90;99.90;;;;;;5064442;28;20718;-79
2022/01/08 10:18:23;;;;;;;18.23;12.03;;;7.10;99.90;;;;;;5043044;28;20308;-79
2022/01/08 10:20:50;;;;;;;15.57;11.33;;;7.20;99.90;;;;;;5049029;28;20276;-79
2022/01/08 10:23:20;;;;;;;18.73;12.67;;;7.40;99.90;;;;;;5049950;28;20617;-79
2022/01/08 10:25:58;;;;;;;17.13;12.60;;;7.60;99.90;;;;;;5066445;28;20241;-79
2022/01/08 10:28:36;;;;;;;16.60;11.23;;;7.70;99.90;;;;;;5077813;28;20809;-79
2022/01/08 10:31:17;;;;;;;21.40;12.20;;;7.80;99.90;;;;;;5061418;28;20702;-79
2022/01/08 10:33:45;;;;;;;17.90;12.50;;;8.00;99.90;;;;;;5079087;28;20215;-79
2022/01/08 10:36:12;;;;;;;16.60;12.23;;;8.10;99.90;;;;;;5060154;28;20561;-79
2022/01/08 10:38:39;;;;;;;16.27;11.40;;;8.20;99.90;;;;;;5063657;28;20696;-79
2022/01/08 10:41:14;;;;;;;16.83;12.10;;;8.40;99.90;;;;;;5081192;28;20216;-79
2022/01/08 10:43:40;;;;;;;14.83;11.27;;;8.60;99.90;;;;;;5065348;28;20239;-79
2022/01/08 10:46:13;;;;;;;16.57;11.17;;;8.70;99.90;;;;;;5068620;28;20239;-79
2022/01/08 10:48:44;;;;;;;14.57;11.33;;;9.00;99.90;;;;;;5050119;28;20303;-79
2022/01/08 10:51:14;;;;;;;14.77;10.10;;;9.10;99.90;;;;;;5057285;28;20242;-79
2022/01/08 10:53:58;;;;;;;13.77;10.47;;;9.20;99.90;;;;;;5048741;28;20260;-79
2022/01/08 10:56:27;;;;;;;15.47;10.23;;;9.30;99.90;;;;;;5042337;28;20235;-79
2022/01/08 10:58:59;;;;;;;14.67;10.20;;;9.50;99.90;;;;;;5045796;28;20319;-79
2022/01/08 11:01:58;;;;;;;15.03;10.17;;;9.60;99.90;;;;;;5065633;28;20220;-82
2022/01/08 11:04:35;;;;;;;14.03;9.50;;;9.70;99.90;;;;;;5056464;28;20717;-78
2022/01/08 11:07:03;;;;;;;14.17;9.80;;;9.80;99.90;;;;;;5040609;28;20221;-78
2022/01/08 11:09:30;;;;;;;13.17;9.23;;;9.80;99.90;;;;;;5042535;28;20229;-80
2022/01/08 11:11:59;;;;;;;11.90;9.63;;;9.90;99.90;;;;;;5040742;28;20231;-79
2022/01/08 11:14:48;;;;;;;12.33;9.60;;;9.90;99.90;;;;;;5064423;28;20251;-79
2022/01/08 11:17:21;;;;;;;16.00;9.43;;;10.00;99.90;;;;;;5059852;28;20709;-79
2022/01/08 11:19:50;;;;;;;10.63;8.50;;;10.00;99.90;;;;;;5063846;28;20229;-79
2022/01/08 11:22:21;;;;;;;15.00;8.87;;;10.00;99.90;;;;;;5078144;28;20213;-79
2022/01/08 11:24:57;;;;;;;14.63;9.57;;;10.00;99.90;;;;;;5059694;28;20222;-79
2022/01/08 11:27:26;;;;;;;10.77;8.83;;;10.00;99.90;;;;;;5064678;28;20221;-79
2022/01/08 11:30:03;;;;;;;15.33;8.77;;;10.00;99.90;;;;;;5043892;28;20225;-79
2022/01/08 11:32:30;;;;;;;13.00;8.43;;;10.00;99.90;;;;;;5059681;28;20703;-79
2022/01/08 11:35:00;;;;;;;10.63;7.90;;;10.10;99.90;;;;;;5061005;28;20216;-79
2022/01/08 11:37:27;;;;;;;11.50;8.03;;;10.10;99.90;;;;;;5046324;28;20244;-79
2022/01/08 11:39:55;;;;;;;13.57;9.10;;;10.20;99.90;;;;;;5045156;28;20418;-79
2022/01/08 11:42:22;;;;;;;13.10;8.57;;;10.30;99.90;;;;;;5067080;28;20211;-79
2022/01/08 11:44:53;;;;;;;11.90;7.53;;;10.30;99.90;;;;;;5072673;28;20218;-79
2022/01/08 11:47:21;;;;;;;9.93;7.83;;;10.40;99.90;;;;;;5072955;28;20368;-79
2022/01/08 11:49:49;;;;;;;9.73;6.93;;;10.40;99.90;;;;;;5072506;28;20232;-79
2022/01/08 11:52:20;;;;;;;11.37;7.77;;;10.50;99.90;;;;;;5041811;28;20218;-79
2022/01/08 11:54:48;;;;;;;11.03;7.30;;;10.50;99.90;;;;;;5062626;28;20307;-79
2022/01/08 11:57:17;;;;;;;10.53;6.90;;;10.50;99.90;;;;;;5067412;28;20533;-79
2022/01/08 11:59:45;;;;;;;10.60;7.43;;;10.50;99.90;;;;;;5065936;28;20215;-78
2022/01/08 12:02:13;;;;;;;13.70;7.20;;;10.40;99.90;;;;;;5068644;28;20221;-79
2022/01/08 12:04:41;;;;;;;11.90;7.27;;;10.30;99.90;;;;;;5061292;28;20313;-79
2022/01/08 12:07:26;;;;;;;12.20;7.10;;;10.20;99.90;;;;;;5037821;28;20227;-79
2022/01/08 12:10:14;;;;;;;12.37;6.70;;;10.20;99.90;;;;;;5058551;28;20217;-79
2022/01/08 12:12:53;;;;;;;10.93;7.67;;;10.20;99.90;;;;;;5063497;28;20229;-79
2022/01/08 12:15:49;;;;;;;10.73;7.13;;;10.30;99.90;;;;;;5065046;28;20237;-79
2022/01/08 12:18:19;;;;;;;10.57;6.70;;;10.40;99.90;;;;;;5065378;28;20289;-79
2022/01/08 12:20:48;;;;;;;9.83;6.90;;;10.60;99.90;;;;;;5072080;28;20686;-79
2022/01/08 12:23:31;;;;;;;11.03;7.47;;;10.80;99.90;;;;;;5062473;28;20223;-79
2022/01/08 12:25:59;;;;;;;11.60;6.83;;;10.90;99.90;;;;;;5034018;28;20561;-79
2022/01/08 12:28:53;;;;;;;12.23;7.33;;;11.00;99.90;;;;;;5038010;28;20216;-79
2022/01/08 12:31:26;;;;;;;8.63;6.30;;;11.00;99.90;;;;;;5037134;28;20218;-79
2022/01/08 12:34:48;;;;;;;9.13;7.17;;;11.00;99.40;;;;;;5043541;28;20300;-79
2022/01/08 12:37:16;;;;;;;12.97;7.43;;;10.80;99.50;;;;;;5035971;28;20316;-79
2022/01/08 12:39:55;;;;;;;9.80;7.00;;;10.60;99.80;;;;;;5040680;28;20221;-79
2022/01/08 12:42:45;;;;;;;13.60;6.90;;;10.40;99.90;;;;;;5035865;28;20722;-80
2022/01/08 12:45:18;;;;;;;12.57;6.97;;;10.20;99.50;;;;;;5033498;28;20230;-79
2022/01/08 12:47:55;;;;;;;10.73;6.87;;;10.10;99.90;;;;;;5034311;28;20265;-75
2022/01/08 12:50:31;;;;;;;9.67;7.00;;;10.00;99.90;;;;;;5060310;28;20243;-78
2022/01/08 12:53:22;;;;;;;13.47;7.37;;;9.80;99.90;;;;;;5061750;28;20234;-78
2022/01/08 12:56:10;;;;;;;11.97;7.50;;;9.70;99.90;;;;;;5061394;28;20249;-80
2022/01/08 12:58:43;;;;;;;10.60;6.93;;;9.80;99.90;;;;;;5045329;28;20236;-79
2022/01/08 13:01:12;;;;;;;11.30;6.13;;;9.70;99.90;;;;;;5058719;28;20229;-79
2022/01/08 13:03:41;;;;;;;9.47;6.43;;;9.70;99.90;;;;;;5065969;28;20249;-79
2022/01/08 13:06:31;;;;;;;9.10;6.27;;;9.60;99.90;;;;;;5055243;28;20213;-81
2022/01/08 13:08:59;;;;;;;10.47;6.53;;;9.60;99.90;;;;;;5047530;28;20325;-80